Latest Weather Observations for Nhill Aerodrome

IDV60801

Issued at 9:31 pm EST Saturday 1 August 2015 (issued every 30 minutes, with the page automatically refreshed every 10 minutes)

About weather observations | Map of weather stations | Latest weather observations for VIC | Other Formats
Station Details ID: 078015 Name: NHILL AERODROME Lat: -36.31 Lon: 141.65 Height: 138.9 m
Data from the previous 72 hours. | See also: Recent months at Nhill Aerodrome
Date/Time
EST
Temp
°C
App
Temp
°C
Dew
Point
Rel
Hum
%
Delta-T
°C
Wind Press
QNH
hPa
Press
MSL
hPa
Rain
since 9 am
mm
Dir
 
Spd
km/h
Gust
km/h
Spd
kts
Gust
kts
01/09:30pm 7.3 5.5 7.3 100 0.0 NNW 6 9 3 5 1016.9 1017.1 0.2
01/09:00pm 7.5 5.8 7.4 99 0.0 N 6 9 3 5 1016.8 1017.0 0.0
01/08:30pm 7.4 5.7 7.4 100 0.0 NNW 6 9 3 5 1017.1 1017.3 0.0
01/08:00pm 7.5 5.8 7.5 100 0.0 NNW 6 7 3 4 1017.3 1017.5 0.0
01/07:30pm 7.8 5.9 7.7 99 0.0 NNW 7 9 4 5 1017.2 1017.4 0.0
01/07:00pm 8.1 7.5 7.5 96 0.3 CALM 0 0 0 0 1016.3 1016.5 0.0
01/06:30pm 8.2 6.6 7.8 97 0.2 N 6 6 3 3 1016.5 1016.7 0.0
01/06:00pm 8.2 7.5 7.0 92 0.6 CALM 0 6 0 3 1015.8 1015.9 0.0
01/05:30pm 8.6 6.4 6.4 86 1.0 WSW 7 13 4 7 1016.1 1016.3 0.0
01/05:00pm 8.8 6.3 6.6 86 1.0 S 9 9 5 5 1015.2 1015.3 0.0
01/04:30pm 9.0 6.9 6.6 85 1.1 SW 7 9 4 5 1015.5 1015.6 0.0
01/04:00pm 9.3 6.4 4.5 72 2.1 WSW 9 11 5 6 1016.4 1016.6 0.0
01/03:30pm 9.5 5.9 5.1 74 2.0 SSW 13 17 7 9 1016.1 1016.3 0.0
01/03:00pm 9.7 6.5 5.1 73 2.1 SSW 11 13 6 7 1015.3 1015.4 0.0
01/02:30pm 9.5 5.8 4.7 72 2.2 SSW 13 19 7 10 1015.9 1016.0 0.0
01/02:00pm 9.4 5.3 4.2 70 2.3 SW 15 20 8 11 1016.2 1016.4 0.0
01/01:30pm 9.7 5.0 5.3 74 2.0 SSW 19 24 10 13 1015.7 1015.8 0.0
01/01:00pm 9.4 4.7 5.2 75 1.9 SSW 19 24 10 13 1015.6 1015.7 0.0
01/12:30pm 9.7 4.1 5.5 75 1.9 S 24 30 13 16 1015.6 1015.7 0.0
01/12:00pm 9.9 5.7 7.5 85 1.2 S 19 24 10 13 1015.9 1016.0 0.0
01/11:30am 9.4 4.8 8.2 92 0.6 S 22 28 12 15 1016.0 1016.2 0.0
01/11:00am 9.9 6.3 9.8 99 0.1 S 19 24 10 13 1015.7 1015.8 0.0
01/10:30am 9.5 5.7 9.0 97 0.2 SSW 19 30 10 16 1015.9 1016.0 0.0
01/10:00am 9.0 6.3 9.0 100 0.0 SW 13 15 7 8 1015.7 1015.8 0.0
01/09:30am 8.7 6.3 8.7 100 0.0 SSW 11 15 6 8 1015.4 1015.6 0.0
01/09:00am 8.9 5.1 8.9 100 0.0 SSW 19 26 10 14 1015.0 1015.2 1.0
01/08:30am 8.9 4.5 8.9 100 0.0 SSW 22 30 12 16 1014.4 1014.6 1.0
01/08:00am 8.9 3.7 8.9 100 0.0 SSW 26 37 14 20 1013.4 1013.6 1.0
01/07:30am 9.5 3.3 9.5 100 0.0 SW 32 46 17 25 1012.7 1013.0 1.0
01/07:00am 10.7 6.0 10.7 100 0.0 SW 26 33 14 18 1012.1 1012.3 1.0
01/06:30am 11.7 6.5 11.7 100 0.0 W 30 39 16 21 1011.0 1011.2 1.0
01/06:00am 12.0 7.7 12.0 100 0.0 WNW 26 43 14 23 1010.3 1010.5 0.8
01/05:30am 11.9 7.6 11.9 100 0.0 NW 26 35 14 19 1010.0 1010.2 0.8
01/05:00am 11.1 6.9 11.1 100 0.0 NW 24 30 13 16 1009.7 1009.9 0.6
01/04:30am 11.9 7.6 10.8 93 0.6 NW 24 32 13 17 1009.5 1009.7 0.0
01/04:00am 12.0 7.2 10.2 89 0.9 NNW 26 32 14 17 1009.4 1009.6 0.0
01/03:30am 11.0 7.2 9.1 88 1.0 NNW 19 28 10 15 1009.9 1010.1 0.0
01/03:00am 10.7 7.0 8.1 84 1.3 NNW 17 26 9 14 1010.3 1010.5 0.0
01/02:30am 10.3 7.0 8.1 86 1.1 N 15 24 8 13 1010.6 1010.8 0.0
01/02:00am 9.8 6.4 7.7 87 1.0 N 15 20 8 11 1010.7 1010.9 0.0
01/01:30am 9.6 6.1 7.4 86 1.1 N 15 20 8 11 1011.2 1011.4 0.0
01/01:00am 8.7 5.5 6.7 87 0.9 N 13 19 7 10 1011.6 1011.8 0.0
01/12:30am 9.1 5.8 6.2 82 1.3 N 13 28 7 15 1012.0 1012.2 0.0
01/12:00am 9.0 5.6 6.1 82 1.3 N 13 20 7 11 1012.4 1012.7 0.0
 
Date/Time
EST
Temp
°C
App
Temp
°C
Dew
Point
Rel
Hum
%
Delta-T
°C
Wind Press
QNH
hPa
Press
MSL
hPa
Rain
since 9 am
mm
Dir
 
Spd
km/h
Gust
km/h
Spd
kts
Gust
kts
31/11:30pm 9.1 6.0 5.5 78 1.6 N 11 15 6 8 1013.2 1013.4 0.0
31/11:00pm 9.1 6.3 5.1 76 1.8 N 9 17 5 9 1013.6 1013.8 0.0
31/10:30pm 9.6 6.0 5.0 73 2.1 N 13 20 7 11 1014.4 1014.6 0.0
31/10:00pm 9.3 6.3 4.3 71 2.2 N 9 15 5 8 1014.6 1014.8 0.0
31/09:30pm 9.3 5.5 4.1 70 2.3 NNE 13 20 7 11 1014.2 1014.4 0.0
31/09:00pm 9.0 5.2 4.0 71 2.2 NNE 13 19 7 10 1014.3 1014.5 0.0
31/08:30pm 9.0 5.8 5.0 76 1.8 NNE 11 17 6 9 1014.9 1015.1 0.0
31/08:00pm 8.8 6.4 5.4 79 1.5 NNE 7 13 4 7 1015.1 1015.3 0.0
31/07:30pm 9.2 6.4 5.0 75 1.9 NNE 9 15 5 8 1015.5 1015.7 0.0
31/07:00pm 9.4 7.0 5.2 75 1.9 NNE 7 9 4 5 1015.8 1016.0 0.0
31/06:30pm 9.5 7.1 5.3 75 1.9 NNE 7 11 4 6 1016.1 1016.3 0.0
31/06:00pm 9.8 7.5 5.0 72 2.2 N 6 11 3 6 1016.2 1016.4 0.0
31/05:30pm 9.5 7.0 4.9 73 2.1 N 7 11 4 6 1016.2 1016.4 0.0
31/05:00pm 9.7 6.3 4.1 68 2.5 NNW 11 15 6 8 1016.3 1016.5 0.0
31/04:30pm 10.7 6.4 3.0 59 3.4 NNW 15 19 8 10 1016.1 1016.3 0.0
31/04:00pm 10.8 6.8 3.1 59 3.4 N 13 20 7 11 1016.3 1016.5 0.0
31/03:30pm 11.2 5.9 2.0 53 3.9 N 19 26 10 14 1016.5 1016.7 0.0
31/03:00pm 11.7 6.5 2.5 53 4.0 N 19 33 10 18 1016.8 1017.0 0.0
31/02:30pm 11.7 6.6 3.0 55 3.8 N 19 28 10 15 1017.5 1017.7 0.0
31/02:00pm 11.7 6.8 4.0 59 3.5 NNW 19 28 10 15 1018.1 1018.3 0.0
31/01:30pm 11.1 6.9 3.6 60 3.3 N 15 24 8 13 1018.5 1018.8 0.0
31/01:00pm 10.9 6.3 3.5 60 3.3 NNW 17 26 9 14 1019.3 1019.6 0.0
31/12:30pm 9.6 4.5 3.1 64 2.8 NNW 19 30 10 16 1020.2 1020.5 0.0
31/12:00pm 10.0 5.2 2.8 61 3.1 NNW 17 24 9 13 1020.9 1021.1 0.0
31/11:30am 9.1 4.7 2.7 64 2.7 NNW 15 22 8 12 1021.3 1021.5 0.0
31/11:00am 8.8 5.2 2.8 66 2.6 NNW 11 17 6 9 1021.8 1022.0 0.0
31/10:30am 7.4 5.5 7.4 100 0.0 NW 7 9 4 5 1022.1 1022.3 0.0
31/10:00am 5.4 3.6 5.4 100 0.0 NNW 4 11 2 6 1022.3 1022.5 0.0
31/09:30am 4.0 2.7 4.0 100 0.0 CALM 0 0 0 0 1022.5 1022.7 0.0
31/09:00am 2.0 0.3 2.0 100 0.0 CALM 0 0 0 0 1022.4 1022.6 1.2
31/08:30am 1.2 -0.6 1.2 100 0.0 CALM 0 0 0 0 1022.2 1022.4 1.0
31/08:00am 0.8 -1.8 0.8 100 0.0 NNW 4 6 2 3 1022.0 1022.2 1.0
31/07:30am 0.1 -1.9 0.1 100 0.0 CALM 0 0 0 0 1021.7 1021.9 1.0
31/07:00am 0.0 -2.7 0.0 100 0.0 NNW 4 7 2 4 1021.6 1021.8 1.0
31/06:30am -1.2 -4.1 -1.2 100 0.0 NNW 4 7 2 4 1021.4 1021.6 1.0
31/06:00am 0.4 -2.9 0.4 100 0.0 NW 7 9 4 5 1021.2 1021.4 1.0
31/05:30am 0.3 -1.6 0.3 100 0.0 CALM 0 0 0 0 1021.0 1021.2 1.0
31/05:00am 1.3 -0.5 1.3 100 0.0 CALM 0 0 0 0 1020.7 1020.9 1.0
31/04:30am 1.7 0.0 1.7 100 0.0 CALM 0 0 0 0 1020.8 1021.0 1.0
31/04:00am 2.5 0.2 2.5 100 0.0 WSW 4 7 2 4 1020.8 1021.0 1.0
31/03:30am 1.9 -0.5 1.9 100 0.0 WSW 4 7 2 4 1021.0 1021.2 1.0
31/03:00am 3.0 1.5 3.0 100 0.0 CALM 0 0 0 0 1020.9 1021.1 1.0
31/02:30am 3.1 1.6 3.1 100 0.0 CALM 0 0 0 0 1020.9 1021.1 1.0
31/02:00am 3.6 1.1 3.6 100 0.0 WSW 6 7 3 4 1020.9 1021.1 1.0
31/01:30am 4.1 1.7 4.1 100 0.0 WSW 6 7 3 4 1021.1 1021.3 1.0
31/01:00am 4.0 1.4 4.0 100 0.0 WSW 7 7 4 4 1021.1 1021.3 1.0
31/12:30am 4.8 2.3 4.8 100 0.0 WSW 7 9 4 5 1020.9 1021.1 1.0
31/12:00am 5.3 2.1 5.3 100 0.0 W 11 13 6 7 1020.8 1021.0 1.0
 
Date/Time
EST
Temp
°C
App
Temp
°C
Dew
Point
Rel
Hum
%
Delta-T
°C
Wind Press
QNH
hPa
Press
MSL
hPa
Rain
since 9 am
mm
Dir
 
Spd
km/h
Gust
km/h
Spd
kts
Gust
kts
30/11:30pm 6.3 3.4 6.3 100 0.0 WSW 11 13 6 7 1020.7 1020.9 1.0
30/11:00pm 6.4 3.9 6.4 100 0.0 WSW 9 11 5 6 1020.4 1020.7 1.0
30/10:30pm 6.7 3.8 6.7 100 0.0 WSW 11 11 6 6 1020.1 1020.4 1.0
30/10:00pm 7.4 4.3 7.4 100 0.0 WSW 13 15 7 8 1020.0 1020.3 1.0
30/09:30pm 8.5 5.3 8.5 100 0.0 SW 15 20 8 11 1019.5 1019.8 1.0
30/09:00pm 9.3 5.6 9.3 100 0.0 SW 19 24 10 13 1019.1 1019.4 1.0
30/08:30pm 9.4 4.4 9.4 100 0.0 SSW 26 39 14 21 1018.8 1019.1 0.8
30/08:00pm 9.9 5.0 9.9 100 0.0 WSW 26 33 14 18 1018.1 1018.3 0.4
30/07:30pm 10.6 4.5 10.6 100 0.0 W 33 44 18 24 1017.2 1017.4 0.2
30/07:00pm 11.0 7.6 10.7 98 0.2 WNW 19 32 10 17 1016.4 1016.6 0.0
30/06:30pm 11.3 7.4 9.4 88 1.0 NW 20 32 11 17 1016.1 1016.3 0.0
30/06:00pm 12.3 5.9 8.6 78 1.9 WNW 32 46 17 25 1015.9 1016.1 0.0
30/05:46pm 12.8 6.7 8.1 73 2.3 WNW 30 48 16 26 1015.8 1016.0 0.0
30/05:30pm 13.0 6.8 7.9 71 2.5 WNW 30 41 16 22 1015.4 1015.6 0.0
30/05:00pm 13.2 8.0 7.2 67 2.9 NW 24 35 13 19 1015.3 1015.5 0.0
30/04:30pm 12.7 7.6 6.1 64 3.1 NW 22 30 12 16 1015.2 1015.4 0.0
30/04:00pm 12.6 6.6 5.3 61 3.4 NW 26 37 14 20 1015.0 1015.2 0.0
30/03:30pm 12.0 6.0 5.4 64 3.1 NNW 26 37 14 20 1014.9 1015.1 0.0
30/03:00pm 11.6 4.5 5.5 66 2.8 NNW 32 43 17 23 1015.1 1015.3 0.0
30/02:30pm 11.0 4.8 6.0 71 2.3 NNW 28 39 15 21 1015.6 1015.8 0.0
30/02:00pm 11.2 5.7 5.9 70 2.5 NNW 24 35 13 19 1015.6 1015.8 0.0
30/01:30pm 10.4 4.3 6.4 76 1.9 NNW 28 39 15 21 1016.1 1016.3 0.0
30/01:00pm 11.8 5.5 3.6 57 3.7 NNW 26 39 14 21 1016.6 1016.8 0.0
30/12:30pm 11.0 5.8 3.3 59 3.4 NNW 20 30 11 16 1016.9 1017.1 0.0
30/12:00pm 11.0 4.8 4.2 63 3.1 N 26 35 14 19 1017.1 1017.3 0.0
30/11:30am 10.4 4.2 4.3 66 2.7 N 26 41 14 22 1017.6 1017.8 0.0
30/11:00am 8.8 3.8 4.6 75 1.9 N 20 30 11 16 1018.0 1018.2 0.0
30/10:30am 7.8 2.8 4.6 80 1.4 N 20 28 11 15 1019.2 1019.5 0.0
30/10:00am 7.5 3.0 4.1 79 1.5 N 17 28 9 15 1019.5 1019.8 0.0
30/09:30am 7.1 2.7 4.8 85 1.0 N 17 26 9 14 1020.2 1020.5 0.0
30/09:00am 6.7 2.1 3.9 82 1.2 NNW 17 24 9 13 1020.5 1020.8 0.0
30/08:30am 6.4 1.8 3.7 83 1.2 N 17 26 9 14 1020.3 1020.6 0.0
30/08:00am 6.3 1.3 3.5 82 1.2 N 19 28 10 15 1019.7 1020.0 0.0
30/07:30am 6.0 1.8 4.0 87 0.9 N 15 24 8 13 1019.7 1020.0 0.0
30/07:00am 5.3 1.2 4.1 92 0.5 N 15 20 8 11 1019.7 1020.0 0.0
30/06:30am 4.9 0.7 3.7 92 0.5 N 15 20 8 11 1019.8 1020.1 0.0
30/06:00am 4.9 0.6 3.4 90 0.6 N 15 26 8 14 1020.5 1020.8 0.0
30/05:30am 5.1 0.4 3.3 88 0.8 N 17 33 9 18 1021.0 1021.2 0.0
30/05:00am 4.6 0.4 3.6 93 0.4 N 15 22 8 12 1021.4 1021.6 0.0
30/04:30am 4.3 0.4 3.4 94 0.4 N 13 20 7 11 1021.7 1021.9 0.0
30/04:00am 4.9 0.7 3.6 91 0.5 N 15 24 8 13 1022.1 1022.3 0.0
30/03:30am 4.6 0.7 3.6 93 0.4 N 13 20 7 11 1022.4 1022.6 0.0
30/03:00am 4.7 0.9 3.8 94 0.4 N 13 20 7 11 1022.9 1023.1 0.0
30/02:30am 4.4 0.6 4.1 98 0.1 NNE 13 20 7 11 1023.1 1023.3 0.0
30/02:00am 4.8 1.0 3.9 94 0.4 NNE 13 19 7 10 1023.3 1023.5 0.0
30/01:30am 5.0 1.2 3.8 92 0.5 NNE 13 20 7 11 1023.7 1023.9 0.0
30/01:00am 5.3 1.5 4.0 91 0.5 NNE 13 20 7 11 1023.9 1024.1 0.0
30/12:30am 5.5 2.1 4.2 91 0.6 NNE 11 17 6 9 1024.6 1024.9 0.0
30/12:00am 5.6 2.2 4.2 91 0.6 NNE 11 15 6 8 1025.0 1025.3 0.0
 
Date/Time
EST
Temp
°C
App
Temp
°C
Dew
Point
Rel
Hum
%
Delta-T
°C
Wind Press
QNH
hPa
Press
MSL
hPa
Rain
since 9 am
mm
Dir
 
Spd
km/h
Gust
km/h
Spd
kts
Gust
kts
29/11:30pm 6.3 2.9 4.1 86 0.9 NNE 11 17 6 9 1025.4 1025.7 0.0
29/11:00pm 7.0 3.2 4.1 82 1.2 N 13 20 7 11 1025.5 1025.8 0.0
29/10:30pm 7.0 3.6 4.1 82 1.3 NNE 11 17 6 9 1026.0 1026.3 0.0
29/10:00pm 7.7 3.9 3.9 77 1.6 N 13 19 7 10 1026.1 1026.4 0.0

Other Formats:

Comma delimited format used in spreadsheet applications
http://www.bom.gov.au/fwo/IDV60801/IDV60801.94827.axf

JavaScript Object Notation format (JSON) in row-major order
http://www.bom.gov.au/fwo/IDV60801/IDV60801.94827.json